createdAt,value
2023-01-28T00:00:15.730Z,1.30
2023-01-28T00:02:42.247Z,2.03
2023-01-28T00:05:08.785Z,1.97
2023-01-28T00:07:35.350Z,1.53
2023-01-28T00:10:01.934Z,1.63
2023-01-28T00:12:29.723Z,1.33
2023-01-28T00:14:56.243Z,1.03
2023-01-28T00:17:22.674Z,1.70
2023-01-28T00:19:49.206Z,2.27
2023-01-28T00:22:15.937Z,1.60
2023-01-28T00:24:42.385Z,1.43
2023-01-28T00:27:09.421Z,2.07
2023-01-28T00:29:35.955Z,1.43
2023-01-28T00:32:02.593Z,1.50
2023-01-28T00:34:29.047Z,1.10
2023-01-28T00:36:58.790Z,0.77
2023-01-28T00:39:26.145Z,1.37
2023-01-28T00:41:53.639Z,2.13
2023-01-28T00:44:20.329Z,1.20
2023-01-28T00:46:46.950Z,0.77
2023-01-28T00:49:13.402Z,0.80
2023-01-28T00:51:39.846Z,1.20
2023-01-28T00:54:06.582Z,1.13
2023-01-28T00:56:33.031Z,1.30
2023-01-28T00:58:59.660Z,1.07
2023-01-28T01:01:27.395Z,1.90
2023-01-28T01:04:03.474Z,1.03
2023-01-28T01:06:31.934Z,1.60
2023-01-28T01:08:58.668Z,1.90
2023-01-28T01:11:25.704Z,1.27
2023-01-28T01:13:56.727Z,1.70
2023-01-28T01:16:24.579Z,1.43
2023-01-28T01:18:52.304Z,3.37
2023-01-28T01:21:19.698Z,2.80
2023-01-28T01:23:46.577Z,3.10
2023-01-28T01:26:13.500Z,2.10
2023-01-28T01:28:40.012Z,2.90
2023-01-28T01:35:07.369Z,2.40
2023-01-28T01:37:34.602Z,2.00
2023-01-28T01:40:04.960Z,2.37
2023-01-28T01:42:34.210Z,2.13
2023-01-28T01:45:06.061Z,1.60
2023-01-28T01:47:38.683Z,1.57
2023-01-28T01:50:12.673Z,1.70
2023-01-28T01:52:39.615Z,1.60
2023-01-28T01:55:09.380Z,1.83
2023-01-28T01:57:36.728Z,1.30
2023-01-28T02:00:07.633Z,2.80
2023-01-28T02:02:35.813Z,4.30
2023-01-28T02:05:03.123Z,2.00
2023-01-28T02:07:29.774Z,1.97
2023-01-28T02:09:56.257Z,1.50
2023-01-28T02:12:36.683Z,3.43
2023-01-28T02:15:06.129Z,1.13
2023-01-28T02:17:32.570Z,1.00
2023-01-28T02:20:00.731Z,0.90
2023-01-28T02:22:46.075Z,1.00
2023-01-28T02:32:33.769Z,1.17
2023-01-28T02:35:03.078Z,1.40
2023-01-28T02:37:34.087Z,0.77
2023-01-28T02:40:05.366Z,2.00
2023-01-28T02:42:32.808Z,1.83
2023-01-28T02:44:59.386Z,2.20
2023-01-28T02:47:44.135Z,1.93
2023-01-28T02:50:13.031Z,1.53
2023-01-28T02:53:05.277Z,1.20
2023-01-28T02:55:48.776Z,1.20
2023-01-28T02:58:27.337Z,1.20
2023-01-28T03:01:02.228Z,1.47
2023-01-28T03:03:33.393Z,1.40
2023-01-28T03:06:06.845Z,1.10
2023-01-28T03:09:05.644Z,1.57
2023-01-28T03:11:53.523Z,2.07
2023-01-28T03:14:39.259Z,1.13
2023-01-28T03:17:27.631Z,1.17
2023-01-28T03:23:58.997Z,1.10
2023-01-28T03:26:46.628Z,1.00
2023-01-28T03:29:32.886Z,2.97
2023-01-28T03:39:27.656Z,4.23
2023-01-28T03:41:58.314Z,11.57
2023-01-28T03:44:43.626Z,9.40
2023-01-28T03:47:11.496Z,4.67
2023-01-28T03:49:51.198Z,2.07
2023-01-28T03:52:19.344Z,1.53
2023-01-28T03:54:48.481Z,2.53
2023-01-28T03:57:15.779Z,2.13
2023-01-28T03:59:42.557Z,2.40
2023-01-28T04:02:10.988Z,2.60
2023-01-28T04:04:40.461Z,2.07
2023-01-28T04:14:40.808Z,2.80
2023-01-28T04:17:10.728Z,3.10
2023-01-28T04:19:37.454Z,4.30
2023-01-28T04:22:05.056Z,3.63
2023-01-28T04:24:31.531Z,3.63
2023-01-28T04:26:57.978Z,3.87
2023-01-28T04:29:24.496Z,5.17
2023-01-28T04:31:51.015Z,4.00
2023-01-28T04:34:17.824Z,4.00
2023-01-28T04:36:44.320Z,4.43
2023-01-28T04:39:10.741Z,4.40
2023-01-28T04:41:37.160Z,5.50
2023-01-28T04:44:03.616Z,3.73
2023-01-28T04:46:30.098Z,2.70
2023-01-28T04:48:56.555Z,2.87
2023-01-28T04:51:23.279Z,1.90
2023-01-28T04:53:49.755Z,7.27
2023-01-28T04:56:16.225Z,19.73
2023-01-28T04:58:42.683Z,21.47
2023-01-28T05:01:09.155Z,18.00
2023-01-28T05:03:36.496Z,14.33
2023-01-28T05:06:03.094Z,15.43
2023-01-28T05:08:29.655Z,9.17
2023-01-28T05:10:56.087Z,6.60
2023-01-28T05:13:22.619Z,4.93
2023-01-28T05:15:54.652Z,3.00
2023-01-28T05:18:21.152Z,7.37
2023-01-28T05:20:47.641Z,9.10
2023-01-28T05:23:14.141Z,9.00
2023-01-28T05:25:40.626Z,15.47
2023-01-28T05:28:07.107Z,11.57
2023-01-28T05:30:33.550Z,10.67
2023-01-28T05:33:00.333Z,10.37
2023-01-28T05:38:54.487Z,25.50
2023-01-28T05:41:21.156Z,21.23
2023-01-28T05:43:47.592Z,12.53
2023-01-28T05:46:14.148Z,8.43
2023-01-28T05:48:40.600Z,12.10
2023-01-28T05:51:07.108Z,10.60
2023-01-28T05:53:33.574Z,7.80
2023-01-28T05:56:00.036Z,8.37
2023-01-28T05:58:30.851Z,7.23
2023-01-28T06:00:57.437Z,5.93
2023-01-28T06:03:24.003Z,5.93
2023-01-28T06:05:50.507Z,5.10
2023-01-28T06:08:16.993Z,5.57
2023-01-28T06:14:30.879Z,4.77
2023-01-28T06:16:57.463Z,3.87
2023-01-28T06:19:23.898Z,7.90
2023-01-28T06:21:50.356Z,22.27
2023-01-28T06:24:16.945Z,15.50
2023-01-28T06:26:43.420Z,8.37
2023-01-28T06:29:09.853Z,5.10
2023-01-28T06:31:36.319Z,5.23
2023-01-28T06:34:03.204Z,4.23
2023-01-28T06:36:29.662Z,3.60
2023-01-28T06:38:56.170Z,3.20
2023-01-28T06:41:22.844Z,2.77
2023-01-28T06:43:49.274Z,3.07
2023-01-28T06:46:15.935Z,2.73
2023-01-28T06:48:42.424Z,3.27
2023-01-28T06:51:08.890Z,3.97
2023-01-28T06:53:35.350Z,6.13
2023-01-28T06:56:01.782Z,7.43
2023-01-28T06:58:28.418Z,12.03
2023-01-28T07:00:54.964Z,11.57
2023-01-28T07:03:21.804Z,11.37
2023-01-28T07:05:48.299Z,14.90
2023-01-28T07:08:15.182Z,7.40
2023-01-28T07:10:41.688Z,17.77
2023-01-28T07:13:08.125Z,4.53
2023-01-28T07:15:34.624Z,5.20
2023-01-28T07:18:01.175Z,4.27
2023-01-28T07:20:27.824Z,3.40
2023-01-28T07:22:54.393Z,3.43
2023-01-28T07:25:20.881Z,4.10
2023-01-28T07:27:48.411Z,5.37
2023-01-28T07:30:15.296Z,5.27
2023-01-28T07:32:42.077Z,8.83
2023-01-28T07:35:08.767Z,7.50
2023-01-28T07:37:35.322Z,8.67
2023-01-28T07:40:01.841Z,7.40
2023-01-28T07:42:28.283Z,4.07
2023-01-28T07:44:54.730Z,4.67
2023-01-28T07:47:21.373Z,4.70
2023-01-28T07:49:47.881Z,5.00
2023-01-28T07:52:14.355Z,6.33
2023-01-28T07:54:40.787Z,7.43
2023-01-28T07:57:09.943Z,7.17
2023-01-28T07:59:36.836Z,10.63
2023-01-28T08:02:03.471Z,9.10
2023-01-28T08:04:30.071Z,12.13
2023-01-28T08:06:57.200Z,13.13
2023-01-28T08:09:23.661Z,11.23
2023-01-28T08:11:50.498Z,7.90
2023-01-28T08:14:17.162Z,9.17
2023-01-28T08:16:43.652Z,7.87
2023-01-28T08:19:10.489Z,9.60
2023-01-28T08:21:36.997Z,10.57
2023-01-28T08:24:03.640Z,9.97
2023-01-28T08:26:30.361Z,13.93
2023-01-28T08:28:56.846Z,8.87
2023-01-28T08:31:23.427Z,9.47
2023-01-28T08:33:49.953Z,10.47
2023-01-28T08:36:16.464Z,18.27
2023-01-28T08:38:43.584Z,10.80
2023-01-28T08:41:10.188Z,12.30
2023-01-28T08:43:36.679Z,10.23
2023-01-28T08:46:05.227Z,8.53
2023-01-28T08:48:35.883Z,8.07
2023-01-28T08:51:02.338Z,9.07
2023-01-28T08:53:28.784Z,11.03
2023-01-28T08:55:55.681Z,13.90
2023-01-28T08:58:22.192Z,13.70
2023-01-28T09:00:49.116Z,15.10
2023-01-28T09:03:15.917Z,12.17
2023-01-28T09:05:42.492Z,7.30
2023-01-28T09:08:11.062Z,7.37
2023-01-28T09:10:37.837Z,12.67
2023-01-28T09:13:04.837Z,14.57
2023-01-28T09:15:31.364Z,15.93
2023-01-28T09:17:58.559Z,20.07
2023-01-28T09:20:25.278Z,30.03
2023-01-28T09:22:51.846Z,17.63
2023-01-28T09:25:18.436Z,17.20
2023-01-28T09:27:44.876Z,13.43
2023-01-28T09:30:13.658Z,15.20
2023-01-28T09:32:40.497Z,11.80
2023-01-28T09:35:07.070Z,10.80
2023-01-28T09:37:33.525Z,8.33
2023-01-28T09:40:00.019Z,14.37
2023-01-28T09:42:43.428Z,11.27
2023-01-28T09:45:17.701Z,10.17
2023-01-28T09:47:55.901Z,11.57
2023-01-28T09:50:25.985Z,6.00
2023-01-28T09:52:54.459Z,11.13
2023-01-28T09:55:30.908Z,9.60
2023-01-28T09:57:57.504Z,10.07
2023-01-28T10:00:26.564Z,11.07
2023-01-28T10:03:13.337Z,14.20
2023-01-28T10:05:53.867Z,12.83
2023-01-28T10:08:23.499Z,12.67
2023-01-28T10:10:59.453Z,5.43
2023-01-28T10:13:26.039Z,9.30
2023-01-28T10:16:18.863Z,9.77
2023-01-28T10:18:51.485Z,40.10
2023-01-28T10:21:41.880Z,16.60
2023-01-28T10:24:15.342Z,9.17
2023-01-28T10:26:42.911Z,14.77
2023-01-28T10:29:14.586Z,7.57
2023-01-28T10:32:00.668Z,18.20
2023-01-28T10:34:27.162Z,9.67
2023-01-28T10:36:54.312Z,6.67
2023-01-28T10:39:23.048Z,7.20
2023-01-28T10:41:57.743Z,5.33
2023-01-28T10:44:31.910Z,8.77
2023-01-28T10:47:01.702Z,18.60
2023-01-28T10:49:29.567Z,24.40
2023-01-28T10:51:56.018Z,6.43
2023-01-28T10:54:26.532Z,13.57
2023-01-28T10:56:58.852Z,7.57
2023-01-28T10:59:32.976Z,10.50
2023-01-28T11:02:04.969Z,5.10
2023-01-28T11:04:32.543Z,6.33
2023-01-28T11:06:59.127Z,6.67
2023-01-28T11:09:48.611Z,14.03
2023-01-28T11:12:22.670Z,11.53
2023-01-28T11:14:52.395Z,9.93
2023-01-28T11:17:20.094Z,11.07
2023-01-28T11:19:46.591Z,9.93
2023-01-28T11:22:30.277Z,10.13
2023-01-28T11:24:56.861Z,15.57
2023-01-28T11:27:25.932Z,12.23
2023-01-28T11:29:53.252Z,13.70
2023-01-28T11:32:20.513Z,10.50
2023-01-28T11:34:51.718Z,10.47
2023-01-28T11:37:20.703Z,14.20
2023-01-28T11:43:29.189Z,24.00
2023-01-28T11:46:04.784Z,13.93
2023-01-28T11:48:41.717Z,18.80
2023-01-28T11:51:19.463Z,15.60
2023-01-28T11:53:45.984Z,12.07
2023-01-28T11:56:27.346Z,24.07
2023-01-28T11:59:00.030Z,10.50
2023-01-28T12:01:39.316Z,9.67
2023-01-28T12:04:18.883Z,16.03
2023-01-28T12:06:48.233Z,22.33
2023-01-28T12:09:42.963Z,7.00
2023-01-28T12:12:15.511Z,5.77
2023-01-28T12:14:47.829Z,7.03
2023-01-28T12:17:27.726Z,5.13
2023-01-28T12:20:00.868Z,4.97
2023-01-28T12:22:42.133Z,4.70
2023-01-28T12:25:23.919Z,8.77
2023-01-28T12:27:59.409Z,5.77
2023-01-28T12:30:26.134Z,6.17
2023-01-28T12:32:52.572Z,4.77
2023-01-28T12:42:56.652Z,9.03
2023-01-28T12:45:29.432Z,5.20
2023-01-28T12:48:00.260Z,7.17
2023-01-28T12:50:32.464Z,6.33
2023-01-28T12:53:03.416Z,5.57
2023-01-28T12:55:56.373Z,6.03
2023-01-28T12:58:35.616Z,6.73
2023-01-28T13:01:05.379Z,5.67
2023-01-28T13:03:49.784Z,5.57
2023-01-28T13:06:30.390Z,6.83
2023-01-28T13:09:00.277Z,5.70
2023-01-28T13:11:30.511Z,7.20
2023-01-28T13:13:57.182Z,6.27
2023-01-28T13:16:36.763Z,8.57
2023-01-28T13:19:10.476Z,6.70
2023-01-28T13:21:54.721Z,7.33
2023-01-28T13:24:22.421Z,9.87
2023-01-28T13:26:50.739Z,15.37
2023-01-28T13:29:34.123Z,7.20
2023-01-28T13:32:02.505Z,32.77
2023-01-28T13:34:41.074Z,13.73
2023-01-28T13:37:20.079Z,6.80
2023-01-28T13:39:48.744Z,5.67
2023-01-28T13:42:22.017Z,4.33
2023-01-28T13:44:48.878Z,5.97
2023-01-28T13:47:21.779Z,5.97
2023-01-28T13:49:49.956Z,12.37
2023-01-28T13:52:31.979Z,9.83
2023-01-28T13:58:52.151Z,9.17
2023-01-28T14:01:27.304Z,4.53
2023-01-28T14:04:15.258Z,7.13
2023-01-28T14:07:00.415Z,8.33
2023-01-28T14:13:22.781Z,4.23
2023-01-28T14:15:56.941Z,3.23
2023-01-28T14:18:27.865Z,6.77
2023-01-28T14:20:55.945Z,8.23
2023-01-28T14:23:23.768Z,4.30
2023-01-28T14:25:50.553Z,3.93
2023-01-28T14:28:25.679Z,4.50
2023-01-28T14:30:58.258Z,4.53
2023-01-28T14:33:25.563Z,12.07
2023-01-28T14:39:30.914Z,7.83
2023-01-28T14:41:59.895Z,8.27
2023-01-28T14:44:34.145Z,6.47
2023-01-28T14:47:00.804Z,5.73
2023-01-28T14:49:36.256Z,5.40
2023-01-28T14:52:08.767Z,6.33
2023-01-28T14:54:39.666Z,7.30
2023-01-28T14:57:26.408Z,6.00
2023-01-28T14:59:54.496Z,5.77
2023-01-28T15:02:22.894Z,7.33
2023-01-28T15:04:50.218Z,6.80
2023-01-28T15:07:18.322Z,8.60
2023-01-28T15:09:45.014Z,6.60
2023-01-28T15:12:11.892Z,7.87
2023-01-28T15:14:39.923Z,8.43
2023-01-28T15:17:06.807Z,12.60
2023-01-28T15:19:35.292Z,12.50
2023-01-28T15:22:03.144Z,11.30
2023-01-28T15:24:31.104Z,7.47
2023-01-28T15:26:58.042Z,6.53
2023-01-28T15:29:29.024Z,8.97
2023-01-28T15:31:55.806Z,11.37
2023-01-28T15:34:30.047Z,15.83
2023-01-28T15:36:57.517Z,11.77
2023-01-28T15:39:25.729Z,9.37
2023-01-28T15:41:55.549Z,15.87
2023-01-28T15:44:29.378Z,11.87
2023-01-28T15:47:00.358Z,11.37
2023-01-28T15:49:35.466Z,16.37
2023-01-28T15:52:02.485Z,9.73
2023-01-28T15:54:30.609Z,11.07
2023-01-28T15:56:57.681Z,11.17
2023-01-28T15:59:26.821Z,10.03
2023-01-28T16:02:29.343Z,12.57
2023-01-28T16:05:02.641Z,19.63
2023-01-28T16:07:30.623Z,33.73
2023-01-28T16:09:58.792Z,15.13
2023-01-28T16:12:27.087Z,13.73
2023-01-28T16:15:03.009Z,15.67
2023-01-28T16:17:31.305Z,13.87
2023-01-28T16:20:00.201Z,10.40
2023-01-28T16:22:34.398Z,8.63
2023-01-28T16:25:01.141Z,14.83
2023-01-28T16:27:28.679Z,16.87
2023-01-28T16:29:55.742Z,16.27
2023-01-28T16:32:31.787Z,37.63
2023-01-28T16:34:58.529Z,19.53
2023-01-28T16:43:56.813Z,27.57
2023-01-28T16:46:26.846Z,23.43
2023-01-28T16:48:53.616Z,19.93
2023-01-28T16:51:20.931Z,17.87
2023-01-28T16:53:50.964Z,29.47
2023-01-28T16:56:30.501Z,13.90
2023-01-28T17:10:27.879Z,26.20
2023-01-28T17:12:54.708Z,14.60
2023-01-28T17:15:22.046Z,16.90
2023-01-28T17:17:49.559Z,11.23
2023-01-28T17:20:16.428Z,15.33
2023-01-28T17:22:43.202Z,8.47
2023-01-28T17:25:10.173Z,12.70
2023-01-28T17:27:36.835Z,7.90
2023-01-28T17:30:03.775Z,11.03
2023-01-28T17:32:30.457Z,14.43
2023-01-28T17:42:11.532Z,15.70
2023-01-28T17:44:39.086Z,10.93
2023-01-28T17:47:05.691Z,9.60
2023-01-28T17:49:32.441Z,10.97
2023-01-28T17:51:59.407Z,10.80
2023-01-28T17:54:26.836Z,15.83
2023-01-28T17:56:53.570Z,16.23
2023-01-28T17:59:24.984Z,29.30
2023-01-28T18:01:54.666Z,30.77
2023-01-28T18:04:23.966Z,8.10
2023-01-28T18:06:51.728Z,10.10
2023-01-28T18:09:18.590Z,9.73
2023-01-28T18:11:45.208Z,6.90
2023-01-28T18:14:12.035Z,7.90
2023-01-28T18:16:38.934Z,7.87
2023-01-28T18:19:10.436Z,8.37
2023-01-28T18:28:51.874Z,5.97
2023-01-28T18:31:19.443Z,4.70
2023-01-28T18:33:46.021Z,5.40
2023-01-28T18:36:12.923Z,5.23
2023-01-28T18:38:39.491Z,4.37
2023-01-28T18:41:06.138Z,6.10
2023-01-28T18:43:35.428Z,4.53
2023-01-28T18:46:08.898Z,9.03
2023-01-28T18:48:35.497Z,4.10
2023-01-28T18:58:29.876Z,3.77
2023-01-28T19:00:56.691Z,4.07
2023-01-28T19:03:23.254Z,4.77
2023-01-28T19:05:49.974Z,3.80
2023-01-28T19:08:17.015Z,6.40
2023-01-28T19:10:43.664Z,4.80
2023-01-28T19:13:10.266Z,5.57
2023-01-28T19:15:36.784Z,4.33
2023-01-28T19:18:03.500Z,7.63
2023-01-28T19:20:30.318Z,4.03
2023-01-28T19:22:56.871Z,7.53
2023-01-28T19:25:23.436Z,6.07
2023-01-28T19:27:52.389Z,4.10
2023-01-28T19:30:19.183Z,3.43
2023-01-28T19:32:45.693Z,4.80
2023-01-28T19:35:12.149Z,3.37
2023-01-28T19:37:38.762Z,3.73
2023-01-28T19:40:06.104Z,5.10
2023-01-28T19:42:32.823Z,4.30
2023-01-28T19:45:00.308Z,4.47
2023-01-28T19:47:28.256Z,6.00
2023-01-28T19:49:55.214Z,5.57
2023-01-28T19:52:22.063Z,3.13
2023-01-28T19:54:49.284Z,4.93
2023-01-28T19:57:16.074Z,6.50
2023-01-28T19:59:42.793Z,5.83
2023-01-28T20:02:09.803Z,4.50
2023-01-28T20:04:36.301Z,4.77
2023-01-28T20:07:02.920Z,5.97
2023-01-28T20:09:29.523Z,6.50
2023-01-28T20:11:56.171Z,3.30
2023-01-28T20:14:23.040Z,5.30
2023-01-28T20:16:49.742Z,4.40
2023-01-28T20:19:17.638Z,3.07
2023-01-28T20:21:46.093Z,4.17
2023-01-28T20:24:14.137Z,4.30
2023-01-28T20:26:42.299Z,3.30
2023-01-28T20:29:13.308Z,3.67
2023-01-28T20:31:40.718Z,4.97
2023-01-28T20:34:08.373Z,4.40
2023-01-28T20:36:35.032Z,4.47
2023-01-28T20:39:02.268Z,12.00
2023-01-28T20:41:29.058Z,13.43
2023-01-28T20:43:56.382Z,15.40
2023-01-28T20:46:27.907Z,13.70
2023-01-28T20:48:55.748Z,26.50
2023-01-28T20:51:23.522Z,10.63
2023-01-28T20:57:17.624Z,33.43
2023-01-28T20:59:44.520Z,44.03
2023-01-28T21:02:11.265Z,21.27
2023-01-28T21:04:37.941Z,7.50
2023-01-28T21:07:04.671Z,15.80
2023-01-28T21:09:31.369Z,24.93
2023-01-28T21:12:01.439Z,13.20
2023-01-28T21:14:30.520Z,10.43
2023-01-28T21:16:56.982Z,9.70
2023-01-28T21:19:23.809Z,8.17
2023-01-28T21:21:50.505Z,11.97
2023-01-28T21:24:17.387Z,6.27
2023-01-28T21:26:44.169Z,5.07
2023-01-28T21:29:10.942Z,3.47
2023-01-28T21:31:37.604Z,4.10
2023-01-28T21:34:04.435Z,4.60
2023-01-28T21:36:34.127Z,3.80
2023-01-28T21:39:01.126Z,4.20
2023-01-28T21:41:28.092Z,4.20
2023-01-28T21:43:55.820Z,3.80
2023-01-28T21:46:23.302Z,3.50
2023-01-28T21:52:59.193Z,4.73
2023-01-28T21:55:25.707Z,4.30
2023-01-28T21:58:12.181Z,5.90
2023-01-28T22:00:38.994Z,4.17
2023-01-28T22:03:05.827Z,3.70
2023-01-28T22:05:32.450Z,4.57
2023-01-28T22:07:59.232Z,3.20
2023-01-28T22:10:25.867Z,4.00
2023-01-28T22:12:52.575Z,5.00
2023-01-28T22:15:19.175Z,6.63
2023-01-28T22:17:45.780Z,5.33
2023-01-28T22:20:12.463Z,6.77
2023-01-28T22:22:39.056Z,6.43
2023-01-28T22:25:05.849Z,5.53
2023-01-28T22:27:32.372Z,3.83
2023-01-28T22:29:58.891Z,4.70
2023-01-28T22:36:13.385Z,2.80
2023-01-28T22:38:41.318Z,3.30
2023-01-28T22:41:23.311Z,3.90
2023-01-28T22:43:50.922Z,4.10
2023-01-28T22:46:18.152Z,4.03
2023-01-28T22:48:45.392Z,4.47
2023-01-28T22:51:22.985Z,4.47
2023-01-28T22:53:50.358Z,3.00
2023-01-28T22:56:17.728Z,4.20
2023-01-28T22:58:44.615Z,4.37
2023-01-28T23:04:39.614Z,4.50
2023-01-28T23:07:06.188Z,5.80
2023-01-28T23:09:32.639Z,8.07
2023-01-28T23:11:59.072Z,4.17
2023-01-28T23:22:20.052Z,3.90
2023-01-28T23:24:46.482Z,4.53
2023-01-28T23:27:12.988Z,4.37
2023-01-28T23:29:41.979Z,2.53
2023-01-28T23:32:09.946Z,4.20
2023-01-28T23:34:37.766Z,2.37
2023-01-28T23:37:05.207Z,3.60
2023-01-28T23:46:41.060Z,3.80
2023-01-28T23:49:09.465Z,3.57
2023-01-28T23:51:35.997Z,3.43
2023-01-28T23:54:02.543Z,2.83
2023-01-28T23:56:29.075Z,3.47
2023-01-28T23:58:56.339Z,2.80
